createdAt,value
2022-07-29T00:00:00.335Z,21.97
2022-07-29T00:02:30.528Z,21.72
2022-07-29T00:04:59.730Z,21.44
2022-07-29T00:07:28.652Z,20.76
2022-07-29T00:09:57.257Z,20.50
2022-07-29T00:12:27.590Z,20.69
2022-07-29T00:15:02.650Z,20.23
2022-07-29T00:17:42.545Z,20.05
2022-07-29T00:20:24.552Z,19.54
2022-07-29T00:22:58.069Z,19.53
2022-07-29T00:25:26.831Z,18.97
2022-07-29T00:27:57.883Z,18.92
2022-07-29T00:30:26.462Z,19.22
2022-07-29T00:32:56.629Z,19.20
2022-07-29T00:35:42.861Z,19.09
2022-07-29T00:38:12.953Z,18.55
2022-07-29T00:40:49.542Z,18.80
2022-07-29T00:43:19.363Z,18.86
2022-07-29T00:45:47.966Z,18.83
2022-07-29T00:48:22.436Z,17.99
2022-07-29T00:50:52.348Z,17.84
2022-07-29T00:53:22.422Z,18.53
2022-07-29T00:55:51.057Z,18.45
2022-07-29T00:58:21.131Z,18.01
2022-07-29T01:00:54.652Z,18.40
2022-07-29T01:03:24.763Z,18.04
2022-07-29T01:05:53.986Z,18.45
2022-07-29T01:08:26.157Z,18.47
2022-07-29T01:10:57.676Z,18.47
2022-07-29T01:13:29.084Z,18.38
2022-07-29T01:16:02.439Z,17.60
2022-07-29T01:18:40.424Z,17.60
2022-07-29T01:21:29.902Z,18.05
2022-07-29T01:24:18.421Z,17.47
2022-07-29T01:26:51.337Z,18.07
2022-07-29T01:29:38.569Z,17.94
2022-07-29T01:32:27.802Z,18.05
2022-07-29T01:35:05.888Z,17.68
2022-07-29T01:37:49.594Z,17.95
2022-07-29T01:40:38.220Z,18.11
2022-07-29T01:43:15.864Z,18.09
2022-07-29T01:45:50.429Z,17.58
2022-07-29T01:48:23.764Z,18.11
2022-07-29T01:51:01.255Z,18.01
2022-07-29T01:53:38.157Z,17.40
2022-07-29T01:56:08.848Z,17.79
2022-07-29T01:58:41.257Z,17.48
2022-07-29T02:01:13.366Z,17.75
2022-07-29T02:03:46.161Z,17.19
2022-07-29T02:06:20.136Z,17.15
2022-07-29T02:08:52.398Z,17.48
2022-07-29T02:11:21.349Z,16.76
2022-07-29T02:13:56.126Z,17.02
2022-07-29T02:16:31.286Z,17.21
2022-07-29T02:19:03.071Z,17.03
2022-07-29T02:21:34.392Z,17.05
2022-07-29T02:24:05.156Z,17.32
2022-07-29T02:26:35.907Z,17.44
2022-07-29T02:29:04.740Z,17.30
2022-07-29T02:31:36.789Z,17.43
2022-07-29T02:34:09.466Z,17.62
2022-07-29T02:36:39.244Z,17.42
2022-07-29T02:39:10.815Z,17.55
2022-07-29T02:41:47.856Z,17.45
2022-07-29T02:44:18.652Z,17.54
2022-07-29T02:46:55.891Z,17.50
2022-07-29T02:49:36.631Z,17.53
2022-07-29T02:52:08.611Z,17.39
2022-07-29T02:54:46.007Z,17.17
2022-07-29T02:57:23.364Z,16.68
2022-07-29T03:00:03.824Z,16.71
2022-07-29T03:02:36.514Z,16.65
2022-07-29T03:05:06.806Z,16.66
2022-07-29T03:07:39.460Z,16.47
2022-07-29T03:10:19.311Z,15.75
2022-07-29T03:12:49.194Z,16.54
2022-07-29T03:15:21.641Z,16.55
2022-07-29T03:17:55.008Z,15.68
2022-07-29T03:20:26.120Z,16.06
2022-07-29T03:22:54.766Z,15.95
2022-07-29T03:25:49.856Z,16.59
2022-07-29T03:28:18.545Z,16.70
2022-07-29T03:30:50.073Z,16.77
2022-07-29T03:33:22.654Z,16.35
2022-07-29T03:35:51.199Z,16.80
2022-07-29T03:38:19.967Z,16.39
2022-07-29T03:41:03.934Z,16.59
2022-07-29T03:43:34.597Z,16.84
2022-07-29T03:46:09.310Z,16.73
2022-07-29T03:48:49.077Z,16.21
2022-07-29T03:51:18.106Z,16.71
2022-07-29T03:53:46.869Z,16.23
2022-07-29T03:56:20.538Z,16.24
2022-07-29T03:58:54.528Z,16.81
2022-07-29T04:04:38.427Z,16.31
2022-07-29T04:07:08.826Z,16.69
2022-07-29T04:09:39.262Z,16.60
2022-07-29T04:12:08.421Z,16.03
2022-07-29T04:14:37.601Z,15.47
2022-07-29T04:17:09.138Z,16.52
2022-07-29T04:19:39.061Z,16.59
2022-07-29T04:22:08.054Z,16.50
2022-07-29T04:24:37.170Z,16.18
2022-07-29T04:27:05.898Z,16.86
2022-07-29T04:29:34.510Z,16.51
2022-07-29T04:32:05.607Z,16.86
2022-07-29T04:34:34.249Z,16.87
2022-07-29T04:37:04.927Z,16.83
2022-07-29T04:39:33.518Z,16.25
2022-07-29T04:42:02.287Z,16.53
2022-07-29T04:44:31.282Z,16.76
2022-07-29T04:47:06.343Z,16.77
2022-07-29T04:49:34.916Z,16.68
2022-07-29T04:52:05.691Z,15.75
2022-07-29T04:54:34.437Z,15.84
2022-07-29T04:57:04.591Z,15.61
2022-07-29T04:59:42.111Z,15.65
2022-07-29T05:02:13.058Z,15.46
2022-07-29T05:04:46.495Z,15.45
2022-07-29T05:07:16.577Z,15.79
2022-07-29T05:09:45.187Z,15.70
2022-07-29T05:12:13.725Z,16.01
2022-07-29T05:14:42.307Z,15.60
2022-07-29T05:17:10.886Z,16.10
2022-07-29T05:19:39.833Z,16.09
2022-07-29T05:22:08.733Z,15.70
2022-07-29T05:24:38.821Z,16.04
2022-07-29T05:27:07.325Z,16.13
2022-07-29T05:29:44.070Z,16.13
2022-07-29T05:32:14.118Z,16.25
2022-07-29T05:34:50.200Z,15.81
2022-07-29T05:37:19.666Z,16.35
2022-07-29T05:39:56.135Z,16.35
2022-07-29T05:42:25.384Z,16.48
2022-07-29T05:44:55.814Z,16.54
2022-07-29T05:47:24.628Z,16.19
2022-07-29T05:49:53.353Z,16.73
2022-07-29T05:52:25.041Z,16.10
2022-07-29T05:54:55.262Z,16.89
2022-07-29T05:57:26.084Z,17.13
2022-07-29T05:59:55.172Z,17.23
2022-07-29T06:02:23.799Z,17.29
2022-07-29T06:04:54.990Z,17.24
2022-07-29T06:07:50.949Z,16.59
2022-07-29T06:10:30.757Z,17.77
2022-07-29T06:12:59.391Z,19.81
2022-07-29T06:15:28.233Z,21.38
2022-07-29T06:17:59.840Z,22.42
2022-07-29T06:20:31.553Z,24.01
2022-07-29T06:23:05.725Z,25.28
2022-07-29T06:25:36.964Z,26.69
2022-07-29T06:28:05.947Z,27.83
2022-07-29T06:30:34.738Z,28.52
2022-07-29T06:33:03.428Z,29.30
2022-07-29T06:35:42.139Z,30.00
2022-07-29T06:38:31.816Z,30.65
2022-07-29T06:41:05.045Z,30.61
2022-07-29T06:43:52.376Z,31.34
2022-07-29T06:46:24.411Z,32.03
2022-07-29T06:48:54.213Z,31.36
2022-07-29T06:51:24.110Z,30.08
2022-07-29T06:53:59.544Z,31.14
2022-07-29T06:56:40.251Z,31.39
2022-07-29T06:59:11.153Z,32.02
2022-07-29T07:01:42.083Z,32.44
2022-07-29T07:04:14.784Z,33.02
2022-07-29T07:06:43.792Z,34.29
2022-07-29T07:09:12.522Z,34.45
2022-07-29T07:11:42.516Z,35.19
2022-07-29T07:14:11.141Z,35.80
2022-07-29T07:16:39.774Z,36.22
2022-07-29T07:19:20.794Z,36.49
2022-07-29T07:21:51.263Z,37.22
2022-07-29T07:24:20.254Z,38.02
2022-07-29T07:26:50.363Z,38.38
2022-07-29T07:29:19.137Z,38.38
2022-07-29T07:31:47.997Z,38.85
2022-07-29T07:34:16.993Z,37.89
2022-07-29T07:36:57.086Z,38.71
2022-07-29T07:39:29.760Z,38.76
2022-07-29T07:41:59.874Z,38.83
2022-07-29T07:44:28.711Z,39.55
2022-07-29T07:47:03.766Z,39.61
2022-07-29T07:49:37.391Z,39.17
2022-07-29T07:52:06.614Z,40.86
2022-07-29T07:54:37.012Z,40.81
2022-07-29T07:57:12.413Z,41.79
2022-07-29T07:59:48.547Z,39.96
2022-07-29T08:02:17.530Z,41.71
2022-07-29T08:04:46.283Z,41.36
2022-07-29T08:07:23.504Z,42.07
2022-07-29T08:09:57.026Z,40.93
2022-07-29T08:12:27.916Z,41.34
2022-07-29T08:14:56.746Z,41.94
2022-07-29T08:17:25.661Z,42.37
2022-07-29T08:19:56.121Z,42.47
2022-07-29T08:22:24.739Z,43.57
2022-07-29T08:24:57.359Z,42.91
2022-07-29T08:27:44.781Z,44.12
2022-07-29T08:30:20.862Z,43.96
2022-07-29T08:32:55.215Z,44.45
2022-07-29T08:35:26.406Z,43.39
2022-07-29T08:37:59.464Z,44.11
2022-07-29T08:40:32.514Z,44.42
2022-07-29T08:43:07.471Z,45.67
2022-07-29T08:45:48.174Z,45.25
2022-07-29T08:48:18.171Z,45.13
2022-07-29T08:50:48.244Z,45.25
2022-07-29T08:53:19.379Z,45.93
2022-07-29T08:55:49.814Z,46.21
2022-07-29T08:58:21.630Z,46.08
2022-07-29T09:00:55.599Z,46.82
2022-07-29T09:03:47.699Z,47.65
2022-07-29T09:06:16.992Z,46.76
2022-07-29T09:08:46.658Z,45.30
2022-07-29T09:11:15.850Z,44.37
2022-07-29T09:13:45.828Z,45.09
2022-07-29T09:16:26.751Z,44.97
2022-07-29T09:19:03.256Z,45.88
2022-07-29T09:22:03.078Z,46.08
2022-07-29T09:24:43.957Z,45.28
2022-07-29T09:27:24.151Z,45.84
2022-07-29T09:30:01.739Z,46.46
2022-07-29T09:32:30.755Z,46.56
2022-07-29T09:35:22.271Z,47.29
2022-07-29T09:37:51.388Z,44.71
2022-07-29T09:40:22.303Z,45.61
2022-07-29T09:42:51.900Z,45.77
2022-07-29T09:45:31.598Z,46.55
2022-07-29T09:48:04.029Z,45.39
2022-07-29T09:50:41.101Z,45.38
2022-07-29T09:53:11.256Z,46.28
2022-07-29T09:55:51.714Z,46.44
2022-07-29T09:58:21.658Z,45.53
2022-07-29T10:00:53.550Z,47.53
2022-07-29T10:03:22.566Z,47.50
2022-07-29T10:06:07.714Z,48.54
2022-07-29T10:08:36.276Z,48.78
2022-07-29T10:11:13.250Z,48.21
2022-07-29T10:13:43.219Z,47.46
2022-07-29T10:16:14.285Z,43.62
2022-07-29T10:18:44.656Z,44.74
2022-07-29T10:21:34.981Z,46.08
2022-07-29T10:24:02.292Z,46.63
2022-07-29T10:26:31.771Z,46.91
2022-07-29T10:29:00.728Z,46.73
2022-07-29T10:31:41.141Z,46.91
2022-07-29T10:34:17.939Z,47.02
2022-07-29T10:36:59.060Z,47.55
2022-07-29T10:39:41.664Z,46.28
2022-07-29T10:42:20.127Z,47.11
2022-07-29T10:44:49.606Z,47.25
2022-07-29T10:47:27.659Z,44.32
2022-07-29T10:50:01.679Z,45.22
2022-07-29T10:52:55.514Z,46.15
2022-07-29T10:55:43.376Z,44.69
2022-07-29T10:58:18.859Z,44.21
2022-07-29T11:00:49.360Z,42.96
2022-07-29T11:03:50.690Z,42.34
2022-07-29T11:06:26.835Z,43.38
2022-07-29T11:09:20.125Z,44.33
2022-07-29T11:11:58.179Z,46.32
2022-07-29T11:15:00.343Z,45.53
2022-07-29T11:17:53.221Z,46.28
2022-07-29T11:20:38.592Z,46.60
2022-07-29T11:23:26.281Z,46.64
2022-07-29T11:26:18.558Z,46.83
2022-07-29T11:29:01.798Z,47.03
2022-07-29T11:31:42.672Z,46.95
2022-07-29T11:34:23.018Z,47.55
2022-07-29T11:37:27.724Z,47.26
2022-07-29T11:40:18.594Z,47.23
2022-07-29T11:42:51.957Z,47.08
2022-07-29T11:45:41.538Z,46.38
2022-07-29T11:48:29.821Z,45.27
2022-07-29T11:51:02.971Z,43.88
2022-07-29T11:53:33.447Z,42.62
2022-07-29T11:56:03.873Z,38.74
2022-07-29T11:58:33.808Z,37.52
2022-07-29T12:01:04.466Z,36.79
2022-07-29T12:03:36.836Z,35.92
2022-07-29T12:06:14.884Z,35.51
2022-07-29T12:08:45.905Z,35.98
2022-07-29T12:11:20.914Z,35.55
2022-07-29T12:13:51.371Z,35.69
2022-07-29T12:16:25.558Z,35.66
2022-07-29T12:19:02.878Z,35.62
2022-07-29T12:21:32.272Z,34.91
2022-07-29T12:24:08.939Z,35.32
2022-07-29T12:26:40.389Z,34.84
2022-07-29T12:29:15.412Z,34.80
2022-07-29T12:31:45.500Z,34.62
2022-07-29T12:34:15.836Z,34.74
2022-07-29T12:36:45.095Z,34.35
2022-07-29T12:39:15.196Z,34.73
2022-07-29T12:41:44.246Z,34.23
2022-07-29T12:44:13.412Z,34.19
2022-07-29T12:46:42.187Z,33.85
2022-07-29T12:49:10.962Z,34.14
2022-07-29T12:51:42.235Z,34.69
2022-07-29T12:54:12.638Z,33.69
2022-07-29T12:56:45.282Z,33.97
2022-07-29T12:59:19.592Z,34.30
2022-07-29T13:01:50.490Z,34.04
2022-07-29T13:04:29.727Z,34.49
2022-07-29T13:07:04.580Z,34.62
2022-07-29T13:09:41.423Z,34.68
2022-07-29T13:12:12.818Z,34.88
2022-07-29T13:14:43.016Z,34.94
2022-07-29T13:17:13.584Z,35.04
2022-07-29T13:19:44.134Z,34.77
2022-07-29T13:22:13.944Z,34.40
2022-07-29T13:24:53.543Z,33.68
2022-07-29T13:27:24.943Z,34.13
2022-07-29T13:29:54.113Z,33.96
2022-07-29T13:32:27.755Z,33.03
2022-07-29T13:34:58.415Z,33.38
2022-07-29T13:37:30.840Z,32.69
2022-07-29T13:40:00.429Z,32.94
2022-07-29T13:42:30.640Z,32.79
2022-07-29T13:44:59.406Z,33.69
2022-07-29T13:47:32.268Z,34.16
2022-07-29T13:50:01.961Z,34.24
2022-07-29T13:52:30.550Z,34.21
2022-07-29T13:54:59.408Z,34.13
2022-07-29T13:57:29.705Z,33.78
2022-07-29T13:59:58.644Z,34.16
2022-07-29T14:02:28.073Z,34.18
2022-07-29T14:04:56.813Z,33.94
2022-07-29T14:07:25.507Z,33.53
2022-07-29T14:09:54.388Z,34.02
2022-07-29T14:12:23.669Z,34.33
2022-07-29T14:14:53.597Z,34.09
2022-07-29T14:17:22.142Z,33.92
2022-07-29T14:19:51.001Z,33.52
2022-07-29T14:22:22.317Z,33.83
2022-07-29T14:24:54.755Z,33.92
2022-07-29T14:27:37.238Z,33.55
2022-07-29T14:30:10.399Z,33.93
2022-07-29T14:32:38.966Z,34.12
2022-07-29T14:35:08.936Z,33.87
2022-07-29T14:37:40.581Z,33.83
2022-07-29T14:40:10.811Z,33.98
2022-07-29T14:42:40.039Z,34.19
2022-07-29T14:45:11.398Z,34.18
2022-07-29T14:47:40.892Z,33.91
2022-07-29T14:50:10.391Z,33.58
2022-07-29T14:52:38.897Z,33.63
2022-07-29T14:55:16.412Z,33.65
2022-07-29T14:57:54.336Z,33.78
2022-07-29T15:00:30.244Z,33.46
2022-07-29T15:03:02.256Z,33.77
2022-07-29T15:05:32.218Z,33.84
2022-07-29T15:08:01.708Z,33.87
2022-07-29T15:10:30.808Z,33.66
2022-07-29T15:13:00.074Z,33.03
2022-07-29T15:15:30.018Z,33.56
2022-07-29T15:17:58.539Z,33.67
2022-07-29T15:20:28.211Z,33.65
2022-07-29T15:22:57.188Z,33.93
2022-07-29T15:25:26.477Z,33.75
2022-07-29T15:28:01.335Z,33.34
2022-07-29T15:30:33.358Z,33.31
2022-07-29T15:33:03.604Z,33.27
2022-07-29T15:35:32.403Z,33.08
2022-07-29T15:38:00.973Z,33.49
2022-07-29T15:40:30.144Z,33.35
2022-07-29T15:43:01.798Z,33.56
2022-07-29T15:45:36.082Z,32.70
2022-07-29T15:48:07.795Z,33.42
2022-07-29T15:50:37.066Z,33.34
2022-07-29T15:53:05.531Z,33.46
2022-07-29T15:55:34.023Z,33.54
2022-07-29T15:58:02.785Z,33.22
2022-07-29T16:00:33.949Z,33.34
2022-07-29T16:03:02.515Z,33.11
2022-07-29T16:05:31.050Z,32.92
2022-07-29T16:08:00.770Z,33.21
2022-07-29T16:10:29.831Z,33.19
2022-07-29T16:12:58.455Z,33.05
2022-07-29T16:15:27.346Z,32.99
2022-07-29T16:17:57.310Z,33.06
2022-07-29T16:20:25.962Z,32.98
2022-07-29T16:22:55.039Z,32.91
2022-07-29T16:25:38.340Z,32.41
2022-07-29T16:28:12.256Z,32.34
2022-07-29T16:30:41.461Z,32.36
2022-07-29T16:33:11.336Z,32.25
2022-07-29T16:35:40.512Z,32.33
2022-07-29T16:38:09.069Z,32.22
2022-07-29T16:40:37.564Z,31.84
2022-07-29T16:43:06.465Z,32.09
2022-07-29T16:45:42.559Z,31.79
2022-07-29T16:48:18.014Z,32.21
2022-07-29T16:50:47.815Z,32.14
2022-07-29T16:53:16.389Z,32.00
2022-07-29T16:55:44.945Z,31.73
2022-07-29T16:58:13.737Z,31.99
2022-07-29T17:00:42.645Z,31.81
2022-07-29T17:03:11.424Z,31.85
2022-07-29T17:05:52.638Z,31.76
2022-07-29T17:08:23.120Z,31.93
2022-07-29T17:10:52.306Z,31.32
2022-07-29T17:13:21.053Z,31.82
2022-07-29T17:15:49.621Z,31.89
2022-07-29T17:18:18.471Z,31.95
2022-07-29T17:20:48.394Z,31.95
2022-07-29T17:23:16.949Z,31.94
2022-07-29T17:25:45.506Z,31.84
2022-07-29T17:28:14.052Z,31.87
2022-07-29T17:30:42.824Z,32.07
2022-07-29T17:33:11.407Z,32.02
2022-07-29T17:35:57.626Z,32.02
2022-07-29T17:38:27.626Z,31.20
2022-07-29T17:40:56.577Z,31.65
2022-07-29T17:43:25.068Z,31.51
2022-07-29T17:45:56.858Z,31.47
2022-07-29T17:48:28.075Z,31.49
2022-07-29T17:50:58.006Z,31.44
2022-07-29T17:53:27.999Z,30.77
2022-07-29T17:55:58.235Z,31.53
2022-07-29T17:58:27.542Z,31.22
2022-07-29T18:00:56.114Z,31.18
2022-07-29T18:03:25.205Z,31.02
2022-07-29T18:05:53.935Z,31.55
2022-07-29T18:08:22.483Z,31.20
2022-07-29T18:10:52.838Z,30.99
2022-07-29T18:13:21.749Z,31.48
2022-07-29T18:15:50.386Z,31.27
2022-07-29T18:18:19.769Z,31.43
2022-07-29T18:20:48.627Z,31.36
2022-07-29T18:23:18.044Z,31.44
2022-07-29T18:25:46.650Z,31.43
2022-07-29T18:28:16.834Z,31.31
2022-07-29T18:30:46.341Z,31.03
2022-07-29T18:33:22.023Z,31.14
2022-07-29T18:36:11.001Z,30.77
2022-07-29T18:38:41.001Z,31.12
2022-07-29T18:41:09.532Z,31.05
2022-07-29T18:43:39.859Z,30.94
2022-07-29T18:46:08.423Z,30.20
2022-07-29T18:48:37.419Z,30.80
2022-07-29T18:51:09.287Z,30.54
2022-07-29T18:53:38.336Z,30.48
2022-07-29T18:56:06.997Z,30.42
2022-07-29T18:58:37.203Z,29.79
2022-07-29T19:01:07.288Z,29.45
2022-07-29T19:03:35.863Z,29.47
2022-07-29T19:06:04.412Z,29.67
2022-07-29T19:08:33.595Z,29.80
2022-07-29T19:11:02.388Z,29.98
2022-07-29T19:13:31.101Z,29.02
2022-07-29T19:15:59.754Z,29.56
2022-07-29T19:18:29.715Z,29.66
2022-07-29T19:20:58.300Z,29.59
2022-07-29T19:23:26.906Z,29.39
2022-07-29T19:25:55.399Z,29.42
2022-07-29T19:28:23.919Z,28.53
2022-07-29T19:30:52.703Z,28.87
2022-07-29T19:33:21.382Z,29.13
2022-07-29T19:35:54.951Z,28.78
2022-07-29T19:38:23.988Z,28.85
2022-07-29T19:40:52.574Z,28.25
2022-07-29T19:43:52.136Z,28.16
2022-07-29T19:46:09.687Z,28.36
2022-07-29T19:48:38.327Z,28.28
2022-07-29T19:51:08.279Z,27.82
2022-07-29T19:53:36.908Z,27.62
2022-07-29T19:56:06.024Z,28.03
2022-07-29T19:58:37.575Z,27.97
2022-07-29T20:01:10.254Z,28.00
2022-07-29T20:03:40.945Z,27.95
2022-07-29T20:06:10.875Z,27.48
2022-07-29T20:08:39.820Z,27.38
2022-07-29T20:11:08.780Z,27.24
2022-07-29T20:13:37.349Z,27.69
2022-07-29T20:16:08.428Z,27.62
2022-07-29T20:18:37.033Z,27.21
2022-07-29T20:21:05.930Z,27.19
2022-07-29T20:23:35.974Z,27.40
2022-07-29T20:26:09.232Z,26.76
2022-07-29T20:28:40.389Z,27.23
2022-07-29T20:31:09.210Z,26.32
2022-07-29T20:33:37.773Z,27.08
2022-07-29T20:36:07.265Z,26.61
2022-07-29T20:38:37.186Z,26.20
2022-07-29T20:41:05.818Z,26.90
2022-07-29T20:43:39.010Z,26.46
2022-07-29T20:46:08.166Z,26.26
2022-07-29T20:48:36.799Z,26.78
2022-07-29T20:51:05.332Z,26.20
2022-07-29T20:53:34.182Z,26.67
2022-07-29T20:56:04.183Z,26.52
2022-07-29T20:58:34.203Z,26.56
2022-07-29T21:01:03.045Z,25.98
2022-07-29T21:03:31.778Z,26.13
2022-07-29T21:06:00.309Z,26.35
2022-07-29T21:08:29.075Z,25.58
2022-07-29T21:10:57.890Z,26.37
2022-07-29T21:13:28.123Z,26.31
2022-07-29T21:16:02.015Z,26.18
2022-07-29T21:18:37.163Z,25.74
2022-07-29T21:21:06.629Z,26.09
2022-07-29T21:23:35.495Z,25.56
2022-07-29T21:26:05.687Z,26.06
2022-07-29T21:28:38.574Z,25.93
2022-07-29T21:31:09.180Z,25.75
2022-07-29T21:33:38.294Z,25.88
2022-07-29T21:36:42.447Z,25.85
2022-07-29T21:38:57.039Z,25.43
2022-07-29T21:41:25.829Z,25.75
2022-07-29T21:43:59.519Z,25.14
2022-07-29T21:46:29.900Z,25.24
2022-07-29T21:48:58.506Z,24.99
2022-07-29T21:51:27.085Z,25.52
2022-07-29T21:53:55.625Z,25.18
2022-07-29T21:56:27.627Z,25.30
2022-07-29T21:59:02.748Z,25.24
2022-07-29T22:01:38.844Z,24.82
2022-07-29T22:04:07.889Z,24.66
2022-07-29T22:06:36.634Z,24.99
2022-07-29T22:09:05.579Z,24.64
2022-07-29T22:11:36.134Z,24.63
2022-07-29T22:14:07.453Z,25.05
2022-07-29T22:16:36.121Z,25.04
2022-07-29T22:19:05.033Z,25.01
2022-07-29T22:21:33.869Z,24.25
2022-07-29T22:24:02.925Z,24.30
2022-07-29T22:26:31.568Z,24.59
2022-07-29T22:29:00.607Z,23.68
2022-07-29T22:31:30.563Z,24.39
2022-07-29T22:33:59.030Z,24.30
2022-07-29T22:36:27.697Z,23.90
2022-07-29T22:38:56.365Z,23.86
2022-07-29T22:41:24.937Z,23.79
2022-07-29T22:43:53.491Z,23.99
2022-07-29T22:46:22.363Z,23.93
2022-07-29T22:48:52.365Z,23.53
2022-07-29T22:51:20.933Z,23.64
2022-07-29T22:53:49.503Z,23.45
2022-07-29T22:56:19.076Z,23.61
2022-07-29T22:58:49.165Z,23.98
2022-07-29T23:01:37.932Z,23.92
2022-07-29T23:04:08.555Z,23.30
2022-07-29T23:06:37.468Z,22.75
2022-07-29T23:09:06.449Z,23.01
2022-07-29T23:11:35.208Z,22.92
2022-07-29T23:14:04.113Z,23.58
2022-07-29T23:16:32.663Z,23.31
2022-07-29T23:19:01.452Z,23.42
2022-07-29T23:21:31.453Z,23.26
2022-07-29T23:24:00.002Z,23.55
2022-07-29T23:26:28.690Z,23.10
2022-07-29T23:28:57.219Z,23.07
2022-07-29T23:31:25.858Z,23.19
2022-07-29T23:33:54.397Z,22.98
2022-07-29T23:36:22.967Z,22.70
2022-07-29T23:38:55.058Z,23.49
2022-07-29T23:41:23.935Z,23.40
2022-07-29T23:43:52.417Z,23.42
2022-07-29T23:46:23.851Z,22.90
2022-07-29T23:48:52.629Z,23.36
2022-07-29T23:51:21.296Z,23.09
2022-07-29T23:53:53.627Z,22.99
2022-07-29T23:56:24.861Z,23.10
2022-07-29T23:58:54.479Z,22.90
